Time;durP1;ratioP1;P1;durP2;ratioP2;P2;SDS_P1;SDS_P2;PMS_P1;PMS_P2;Temp;Humidity;BMP_temperature;BMP_pressure;BME280_temperature;BME280_humidity;BME280_pressure;Samples;Min_cycle;Max_cycle;Signal;HPM_P1;HPM_P2
2022/07/19 00:01:20;;;;;;;3.72;1.70;;;21.30;50.00;;;20.64;51.31;96529.78;4948764;28;20031;-67
2022/07/19 00:03:46;;;;;;;3.55;1.63;;;21.20;50.30;;;20.58;51.65;96530.72;4916385;29;20118;-67
2022/07/19 00:06:12;;;;;;;3.65;1.40;;;21.10;50.30;;;20.52;52.07;96529.03;4964227;28;20082;-67
2022/07/19 00:08:37;;;;;;;3.15;1.52;;;21.10;50.60;;;20.45;52.18;96528.38;4947578;28;20031;-66
2022/07/19 00:11:03;;;;;;;7.03;1.90;;;21.00;50.80;;;20.37;52.48;96534.09;4948475;28;20042;-67
2022/07/19 00:13:29;;;;;;;3.65;1.80;;;21.00;51.10;;;20.30;52.82;96534.22;4931632;28;20114;-65
2022/07/19 00:15:56;;;;;;;3.13;1.80;;;20.90;51.40;;;20.23;53.09;96530.09;4930986;29;20565;-65
2022/07/19 00:18:22;;;;;;;6.63;1.65;;;20.80;51.40;;;20.13;53.46;96528.81;4931552;28;20039;-66
2022/07/19 00:20:47;;;;;;;3.28;1.90;;;20.70;51.30;;;20.08;52.62;96520.72;4948693;28;20598;-66
2022/07/19 00:23:13;;;;;;;4.22;2.00;;;20.60;51.30;;;20.02;52.67;96532.38;4947429;28;20066;-66
2022/07/19 00:25:39;;;;;;;5.82;2.10;;;20.60;51.50;;;19.96;53.42;96528.00;4932747;28;20039;-67
2022/07/19 00:28:05;;;;;;;4.47;1.80;;;20.50;51.70;;;19.89;53.92;96522.75;4947850;28;20039;-66
2022/07/19 00:30:31;;;;;;;2.90;1.58;;;20.50;51.60;;;19.84;53.84;96519.19;4931156;28;20043;-66
2022/07/19 00:32:57;;;;;;;7.53;2.00;;;20.40;52.00;;;19.76;54.13;96524.91;4947643;28;20039;-66
2022/07/19 00:35:23;;;;;;;3.45;1.80;;;20.30;52.10;;;19.68;53.94;96520.72;4915555;28;20045;-66
2022/07/19 00:37:49;;;;;;;3.25;1.55;;;20.30;52.60;;;19.64;53.68;96521.44;4932086;29;20515;-66
2022/07/19 00:40:21;;;;;;;3.17;1.52;;;20.20;52.60;;;19.61;54.83;96513.91;4947913;28;20043;-66
2022/07/19 00:42:47;;;;;;;3.67;1.83;;;20.20;52.70;;;19.56;54.62;96518.09;4947497;28;20035;-66
2022/07/19 00:45:14;;;;;;;2.90;1.77;;;20.20;52.80;;;19.55;55.15;96516.47;4963527;28;20129;-66
2022/07/19 00:47:40;;;;;;;4.03;1.58;;;20.20;52.80;;;19.51;54.46;96515.31;4948126;28;20043;-66
2022/07/19 00:50:06;;;;;;;4.05;1.60;;;20.10;52.70;;;19.49;55.59;96517.41;4931792;28;20044;-66
2022/07/19 00:52:32;;;;;;;5.85;1.70;;;20.00;52.70;;;19.45;54.85;96512.75;4946065;28;20084;-66
2022/07/19 00:54:58;;;;;;;3.85;1.63;;;20.10;52.90;;;19.43;55.52;96512.97;4948063;28;20376;-66
2022/07/19 00:57:24;;;;;;;6.15;1.90;;;20.10;52.90;;;19.41;55.14;96524.94;4931414;28;20566;-67
2022/07/19 00:59:53;;;;;;;3.53;1.63;;;20.10;53.00;;;19.38;55.32;96510.22;4932178;28;20378;-66
2022/07/19 01:02:19;;;;;;;3.67;1.80;;;20.00;53.10;;;19.36;55.71;96522.97;4946714;28;20032;-66
2022/07/19 01:04:45;;;;;;;7.47;2.00;;;20.10;53.20;;;19.37;55.50;96529.13;4931373;28;20036;-67
2022/07/19 01:07:12;;;;;;;2.40;1.35;;;20.10;53.40;;;19.36;55.51;96522.97;4931945;28;20043;-69
2022/07/19 01:09:40;;;;;;;3.25;1.67;;;20.10;53.70;;;19.34;56.41;96525.06;4947863;28;20031;-67
2022/07/19 01:12:07;;;;;;;2.97;1.50;;;20.10;53.80;;;19.32;56.83;96521.81;4948037;28;20043;-67
2022/07/19 01:14:35;;;;;;;2.95;1.60;;;20.10;53.80;;;19.31;56.67;96520.19;4930805;28;20058;-67
2022/07/19 01:17:02;;;;;;;5.13;1.83;;;20.00;53.70;;;19.26;56.25;96522.75;4944426;28;20043;-67
2022/07/19 01:19:28;;;;;;;6.07;1.70;;;19.90;54.00;;;19.23;56.63;96525.88;4913074;28;20039;-67
2022/07/19 01:21:53;;;;;;;2.78;1.40;;;19.90;54.30;;;19.19;57.18;96522.88;4953520;28;20411;-68
2022/07/19 01:24:19;;;;;;;2.60;1.45;;;19.90;54.30;;;19.15;57.03;96518.22;4946478;28;21238;-67
2022/07/19 01:26:45;;;;;;;5.25;1.77;;;19.80;54.10;;;19.12;57.31;96521.38;4963568;28;20536;-67
2022/07/19 01:29:15;;;;;;;2.25;1.65;;;19.70;54.10;;;19.06;57.09;96523.13;4948688;28;20066;-64
2022/07/19 01:31:41;;;;;;;4.15;1.63;;;19.70;54.30;;;19.02;57.34;96521.16;4933107;28;20035;-67
2022/07/19 01:34:07;;;;;;;2.38;1.50;;;19.70;54.40;;;18.97;57.46;96503.97;4915271;28;20098;-67
2022/07/19 01:36:33;;;;;;;3.83;1.83;;;19.60;54.60;;;18.95;57.31;96513.25;4931569;28;20036;-67
2022/07/19 01:38:59;;;;;;;2.10;1.50;;;19.60;54.30;;;18.91;56.42;96512.09;4948458;28;20042;-67
2022/07/19 01:41:25;;;;;;;3.75;1.60;;;19.50;54.50;;;18.86;57.41;96510.13;4966377;28;20039;-67
2022/07/19 01:43:50;;;;;;;4.05;1.52;;;19.50;55.00;;;18.84;57.64;96514.06;4939386;28;20395;-67
2022/07/19 01:46:16;;;;;;;2.38;1.60;;;19.50;55.30;;;18.80;57.55;96512.91;4934284;29;20127;-67
2022/07/19 01:48:42;;;;;;;3.03;1.40;;;19.60;55.20;;;18.76;58.16;96514.38;4949576;28;20035;-67
2022/07/19 01:51:08;;;;;;;3.22;1.70;;;19.50;55.40;;;18.74;58.48;96506.63;4950276;28;20499;-66
2022/07/19 01:53:34;;;;;;;3.28;1.70;;;19.50;55.50;;;18.73;58.80;96518.31;4934333;28;20054;-67
2022/07/19 01:56:01;;;;;;;5.05;1.80;;;19.50;55.40;;;18.67;58.37;96508.59;4953700;28;20425;-67
2022/07/19 01:58:27;;;;;;;4.53;1.50;;;19.50;55.70;;;18.66;59.26;96512.31;4948488;28;20084;-66
2022/07/19 02:00:52;;;;;;;3.55;2.00;;;19.40;55.60;;;18.63;58.98;96518.09;4951335;28;20518;-67
2022/07/19 02:03:18;;;;;;;2.10;1.50;;;19.30;55.50;;;18.59;59.26;96516.91;4965855;28;20090;-67
2022/07/19 02:05:44;;;;;;;3.92;1.88;;;19.30;56.00;;;18.58;59.08;96509.94;4949581;28;20046;-67
2022/07/19 02:08:10;;;;;;;2.97;1.77;;;19.30;56.10;;;18.55;59.35;96507.72;4965634;28;20043;-67
2022/07/19 02:10:36;;;;;;;4.55;1.70;;;19.30;56.20;;;18.53;59.45;96504.47;4950333;28;20035;-67
2022/07/19 02:13:01;;;;;;;3.30;1.85;;;19.30;56.20;;;18.50;59.47;96507.59;4949537;28;20054;-67
2022/07/19 02:15:27;;;;;;;2.90;2.00;;;19.20;56.30;;;18.48;60.05;96504.34;4934552;28;20415;-67
2022/07/19 02:17:53;;;;;;;4.75;2.30;;;19.20;56.40;;;18.45;59.37;96502.97;4951396;28;20043;-68
2022/07/19 02:20:19;;;;;;;4.53;2.00;;;19.10;56.50;;;18.41;59.33;96498.31;4951111;28;20073;-66
2022/07/19 02:22:45;;;;;;;4.65;2.60;;;19.10;56.70;;;18.38;59.61;96498.78;4918594;28;20415;-66
2022/07/19 02:25:11;;;;;;;12.88;8.55;;;19.10;56.90;;;18.33;60.65;96491.44;4965893;28;20058;-66
2022/07/19 02:27:37;;;;;;;14.20;11.43;;;19.10;57.00;;;18.29;60.60;96493.75;4921366;28;20150;-66
2022/07/19 02:30:04;;;;;;;10.73;6.90;;;19.10;57.00;;;18.26;60.51;96494.22;4935797;28;20134;-66
2022/07/19 02:32:30;;;;;;;24.83;20.20;;;19.00;56.90;;;18.24;60.93;96488.31;4951254;28;20752;-66
2022/07/19 02:34:55;;;;;;;23.42;17.95;;;19.00;57.20;;;18.23;60.26;96496.53;4918965;28;20130;-66
2022/07/19 02:37:21;;;;;;;8.38;6.65;;;19.00;57.20;;;18.21;60.60;96494.09;4949793;28;20386;-66
2022/07/19 02:39:47;;;;;;;7.88;4.70;;;18.90;57.40;;;18.19;61.00;96490.84;4950290;28;20035;-66
2022/07/19 02:42:13;;;;;;;10.32;4.93;;;18.90;57.60;;;18.18;60.34;96493.75;4958767;28;20128;-67
2022/07/19 02:44:39;;;;;;;10.05;6.75;;;19.00;57.20;;;18.16;60.77;96493.97;4933249;28;20054;-67
2022/07/19 02:47:05;;;;;;;3.97;3.40;;;18.90;57.80;;;18.13;61.26;96494.44;4943830;28;20487;-66
2022/07/19 02:49:31;;;;;;;3.95;2.72;;;18.80;58.00;;;18.10;61.65;96492.19;4964478;28;20537;-67
2022/07/19 02:51:56;;;;;;;8.35;2.78;;;18.80;57.80;;;18.06;60.93;96497.16;4953299;28;20415;-64
2022/07/19 02:54:22;;;;;;;4.28;2.22;;;18.80;57.80;;;18.02;61.79;96500.50;4947395;28;20043;-67
2022/07/19 02:56:49;;;;;;;5.43;2.53;;;18.70;58.20;;;17.96;61.44;96496.09;4932338;28;20031;-66
2022/07/19 02:59:14;;;;;;;9.52;3.63;;;18.70;58.20;;;17.93;62.37;96493.88;4948921;28;20031;-66
2022/07/19 03:01:40;;;;;;;8.65;3.72;;;18.60;58.40;;;17.89;62.61;96498.84;4933520;28;20078;-66
2022/07/19 03:04:06;;;;;;;5.25;2.60;;;18.60;58.70;;;17.89;62.67;96495.38;4948105;28;20047;-66
2022/07/19 03:06:32;;;;;;;5.32;2.72;;;18.60;58.70;;;17.88;62.26;96488.41;4948823;28;20035;-67
2022/07/19 03:08:58;;;;;;;13.05;7.78;;;18.60;58.90;;;17.83;62.69;96493.59;4946070;28;20119;-66
2022/07/19 03:11:24;;;;;;;9.38;7.20;;;18.60;58.90;;;17.77;63.06;96495.31;4947558;28;20075;-66
2022/07/19 03:13:50;;;;;;;6.10;4.25;;;18.60;58.80;;;17.70;62.19;96492.75;4948038;28;20043;-66
2022/07/19 03:16:15;;;;;;;3.88;2.50;;;18.50;58.80;;;17.68;62.56;96483.38;4948881;28;20033;-66
2022/07/19 03:18:41;;;;;;;4.60;2.40;;;18.40;58.90;;;17.66;62.18;96490.72;4933505;28;20043;-66
2022/07/19 03:21:07;;;;;;;4.95;2.47;;;18.50;58.70;;;17.62;62.46;96485.03;4949284;28;20032;-66
2022/07/19 03:23:34;;;;;;;4.90;2.20;;;18.40;58.60;;;17.58;62.86;96480.38;4948910;28;20094;-65
2022/07/19 03:26:00;;;;;;;6.00;2.60;;;18.40;58.50;;;17.56;62.38;96483.25;4932766;28;20051;-65
2022/07/19 03:28:26;;;;;;;5.13;2.45;;;18.30;58.70;;;17.54;62.71;96489.84;4947285;28;20074;-66
2022/07/19 03:30:52;;;;;;;6.63;2.75;;;18.30;58.80;;;17.52;62.87;96489.25;4965168;28;20471;-67
2022/07/19 03:33:18;;;;;;;7.78;2.63;;;18.40;58.80;;;17.50;62.74;96486.00;4948316;28;20047;-66
2022/07/19 03:35:44;;;;;;;5.32;2.50;;;18.30;58.90;;;17.47;62.71;96487.28;4917366;28;20494;-68
2022/07/19 03:38:11;;;;;;;5.20;2.90;;;18.30;59.00;;;17.44;63.16;96495.69;4949672;28;20042;-66
2022/07/19 03:40:37;;;;;;;4.18;3.00;;;18.30;59.10;;;17.41;63.66;96488.94;4917725;28;20031;-67
2022/07/19 03:43:03;;;;;;;5.88;2.67;;;18.20;59.20;;;17.40;63.12;96489.16;4944826;28;20542;-66
2022/07/19 03:45:28;;;;;;;5.20;2.67;;;18.20;59.20;;;17.34;63.19;96495.38;4947890;28;20194;-66
2022/07/19 03:47:54;;;;;;;5.72;3.28;;;18.20;59.30;;;17.31;63.52;96482.53;4947921;28;20161;-66
2022/07/19 03:50:20;;;;;;;4.55;2.58;;;18.10;59.60;;;17.29;64.41;96481.94;4929675;29;20470;-66
2022/07/19 03:52:45;;;;;;;6.43;3.70;;;18.10;59.70;;;17.29;63.71;96480.09;4947886;28;20090;-67
2022/07/19 03:55:11;;;;;;;6.47;3.03;;;18.10;59.80;;;17.29;64.50;96485.41;4950722;28;20466;-67
2022/07/19 03:57:37;;;;;;;4.90;2.95;;;18.10;60.00;;;17.28;64.43;96475.81;4949278;28;20406;-68
2022/07/19 04:00:04;;;;;;;8.85;3.10;;;18.20;60.10;;;17.27;64.61;96476.84;4918522;29;20074;-67
2022/07/19 04:02:30;;;;;;;8.40;2.70;;;18.20;60.10;;;17.28;64.66;96478.47;4925237;28;20130;-68
2022/07/19 04:04:55;;;;;;;5.82;2.83;;;18.20;60.30;;;17.28;65.02;96482.97;4934504;28;20031;-68
2022/07/19 04:07:21;;;;;;;4.50;2.67;;;18.10;60.50;;;17.28;65.13;96485.66;4950892;28;20521;-68
2022/07/19 04:09:47;;;;;;;4.45;2.40;;;18.10;60.60;;;17.28;65.59;96483.78;4934461;28;20410;-68
2022/07/19 04:12:12;;;;;;;6.57;2.90;;;18.20;60.80;;;17.30;65.80;96491.56;4934506;28;20492;-67
2022/07/19 04:14:38;;;;;;;3.50;2.65;;;18.20;61.00;;;17.29;65.56;96490.75;4950095;28;20094;-68
2022/07/19 04:17:04;;;;;;;4.45;2.60;;;18.20;60.90;;;17.29;65.79;96495.25;4951680;28;20078;-70
2022/07/19 04:19:31;;;;;;;5.32;2.83;;;18.20;61.00;;;17.28;66.67;96489.13;4934619;28;20032;-69
2022/07/19 04:21:57;;;;;;;4.55;2.40;;;18.20;61.20;;;17.30;66.62;96491.56;4919229;29;20038;-68
2022/07/19 04:24:22;;;;;;;5.38;2.08;;;18.30;61.20;;;17.30;66.49;96496.88;4936207;28;20035;-69
2022/07/19 04:26:48;;;;;;;6.50;2.55;;;18.20;61.20;;;17.30;65.96;96491.56;4949638;28;20047;-68
2022/07/19 04:29:14;;;;;;;4.70;2.28;;;18.20;61.10;;;17.32;66.57;96500.13;4934225;28;20037;-70
2022/07/19 04:31:39;;;;;;;4.30;2.58;;;18.30;61.00;;;17.35;66.26;96494.34;4950406;28;20486;-69
2022/07/19 04:34:05;;;;;;;5.90;2.90;;;18.30;60.50;;;17.38;66.19;96499.22;4933765;28;20065;-69
2022/07/19 04:36:31;;;;;;;5.53;2.40;;;18.40;60.60;;;17.41;66.42;96498.78;4934166;28;20122;-69
2022/07/19 04:38:57;;;;;;;6.22;2.63;;;18.40;60.70;;;17.44;66.47;96509.81;4932335;29;20031;-69
2022/07/19 04:41:23;;;;;;;7.35;2.92;;;18.60;60.70;;;17.48;66.25;96504.84;4935809;29;20079;-70
2022/07/19 04:43:48;;;;;;;4.93;3.40;;;18.60;60.80;;;17.55;67.03;96499.44;4934046;29;20031;-70
2022/07/19 04:46:14;;;;;;;6.68;3.78;;;18.60;60.90;;;17.59;67.33;96506.75;4950253;28;20114;-69
2022/07/19 04:48:41;;;;;;;6.07;3.45;;;18.60;61.10;;;17.63;67.26;96499.94;4938256;28;20038;-69
2022/07/19 04:51:07;;;;;;;7.10;3.05;;;18.70;61.10;;;17.67;67.14;96503.00;4950306;28;20051;-69
2022/07/19 04:53:32;;;;;;;3.72;2.90;;;18.70;61.70;;;17.69;68.36;96501.75;4925106;28;20043;-69
2022/07/19 04:55:58;;;;;;;8.13;3.03;;;18.70;62.20;;;17.72;68.50;96506.63;4924799;28;20094;-69
2022/07/19 04:58:24;;;;;;;10.18;3.30;;;18.80;62.50;;;17.75;68.58;96503.53;4952654;28;20411;-68
2022/07/19 05:00:50;;;;;;;4.55;2.92;;;18.80;62.70;;;17.74;68.74;96501.09;4937084;28;20046;-69
2022/07/19 05:03:15;;;;;;;7.95;3.45;;;18.80;62.50;;;17.74;68.84;96499.25;4953119;28;20054;-69
2022/07/19 05:05:41;;;;;;;5.13;2.83;;;18.80;62.50;;;17.78;68.71;96498.78;4922951;29;20098;-69
2022/07/19 05:08:07;;;;;;;5.30;2.78;;;18.80;62.70;;;17.82;69.34;96506.09;4933814;29;20047;-67
2022/07/19 05:10:32;;;;;;;4.70;2.80;;;18.90;62.10;;;17.85;69.14;96502.16;4949702;28;20117;-68
2022/07/19 05:12:58;;;;;;;6.28;2.35;;;19.00;62.30;;;17.89;69.55;96495.38;4933930;29;20119;-69
2022/07/19 05:15:24;;;;;;;4.20;2.55;;;19.00;62.30;;;17.93;68.71;96493.88;4921370;29;20027;-69
2022/07/19 05:17:50;;;;;;;5.03;2.80;;;19.10;61.80;;;17.99;68.68;96503.63;4921333;29;20079;-69
2022/07/19 05:20:16;;;;;;;6.05;2.92;;;19.10;60.80;;;18.03;67.81;96496.81;4970597;28;20038;-69
2022/07/19 05:22:43;;;;;;;5.65;2.90;;;19.20;60.70;;;18.08;67.89;96498.78;4921709;28;20032;-69
2022/07/19 05:25:09;;;;;;;6.43;2.92;;;19.30;60.20;;;18.14;67.52;96496.06;4906455;29;20038;-69
2022/07/19 05:27:35;;;;;;;4.32;2.90;;;19.30;60.10;;;18.20;66.83;96502.31;4921332;29;20449;-69
2022/07/19 05:30:02;;;;;;;11.95;3.08;;;19.40;60.20;;;18.25;67.56;96500.59;4936956;29;20445;-69
2022/07/19 05:32:28;;;;;;;4.55;2.30;;;19.50;59.80;;;18.31;66.77;96499.66;4952833;28;20068;-69
2022/07/19 05:34:54;;;;;;;3.95;2.53;;;19.50;59.50;;;18.40;66.39;96507.34;4924049;28;20113;-69
2022/07/19 05:37:20;;;;;;;3.00;2.13;;;19.70;59.40;;;18.50;67.13;96507.59;4920292;29;20431;-67
2022/07/19 05:39:45;;;;;;;4.35;2.42;;;19.80;59.80;;;18.61;66.77;96493.50;4918189;29;20411;-66
2022/07/19 05:42:11;;;;;;;3.85;2.38;;;20.00;59.70;;;18.73;66.46;96505.00;4934011;28;20063;-66
2022/07/19 05:44:37;;;;;;;4.43;2.40;;;20.10;59.00;;;18.86;66.14;96490.66;4949724;28;20028;-66
2022/07/19 05:47:03;;;;;;;3.38;2.35;;;20.20;58.40;;;18.97;65.45;96501.31;4948104;28;20407;-66
2022/07/19 05:49:28;;;;;;;3.58;2.58;;;20.40;57.70;;;19.08;65.39;96497.03;4944137;28;20039;-67
2022/07/19 05:51:54;;;;;;;4.97;2.42;;;20.50;57.20;;;19.21;64.81;96499.44;4925097;29;20036;-66
2022/07/19 05:54:20;;;;;;;5.90;2.30;;;20.70;57.00;;;19.36;64.86;96495.50;4953035;28;20146;-66
2022/07/19 05:56:45;;;;;;;3.53;2.58;;;20.80;56.50;;;19.49;64.49;96498.72;4936522;28;20031;-67
2022/07/19 05:59:11;;;;;;;6.68;2.72;;;21.00;56.00;;;19.62;63.94;96495.00;4921131;29;20090;-67
2022/07/19 06:01:37;;;;;;;5.75;2.20;;;21.10;55.40;;;19.77;64.38;96497.97;4936747;28;20122;-67
2022/07/19 06:04:03;;;;;;;4.95;2.40;;;21.40;55.40;;;19.94;64.13;96487.38;4936523;29;20118;-68
2022/07/19 06:06:31;;;;;;;5.40;2.60;;;21.60;55.00;;;20.12;63.39;96494.34;4955560;28;20027;-67
2022/07/19 06:08:57;;;;;;;5.90;2.80;;;21.80;54.80;;;20.31;63.56;96492.28;4939034;28;20114;-68
2022/07/19 06:11:22;;;;;;;6.72;2.70;;;22.10;54.40;;;20.54;63.21;96486.84;4936715;29;20514;-67
2022/07/19 06:13:48;;;;;;;7.18;2.47;;;22.40;53.60;;;20.74;62.26;96481.81;4936449;28;20039;-68
2022/07/19 06:16:14;;;;;;;6.63;2.80;;;22.60;52.90;;;20.96;62.61;96487.22;4920993;29;20442;-68
2022/07/19 06:18:40;;;;;;;4.95;2.60;;;22.80;53.20;;;21.18;62.49;96476.59;4938422;28;20576;-68
2022/07/19 06:21:10;;;;;;;8.48;2.70;;;23.10;52.70;;;21.37;61.52;96479.81;4957896;28;20411;-67
2022/07/19 06:23:37;;;;;;;3.35;2.10;;;23.30;51.60;;;21.58;61.18;96480.88;4920968;29;20043;-68
2022/07/19 06:26:03;;;;;;;5.10;2.60;;;23.60;51.00;;;21.79;60.56;96484.63;4951197;28;20027;-68
2022/07/19 06:28:29;;;;;;;6.68;2.40;;;23.90;50.50;;;21.99;59.52;96477.63;4952108;28;20042;-67
2022/07/19 06:30:55;;;;;;;7.85;2.90;;;24.20;49.50;;;22.22;58.95;96489.13;4952470;28;20031;-68
2022/07/19 06:33:21;;;;;;;4.43;2.45;;;24.50;48.60;;;22.43;58.57;96482.09;4952475;28;20126;-68
2022/07/19 06:35:47;;;;;;;4.45;2.38;;;24.70;47.90;;;22.66;58.53;96483.63;4936013;29;20035;-67
2022/07/19 06:38:12;;;;;;;4.90;2.00;;;25.00;48.10;;;22.88;58.12;96473.66;4919816;29;20416;-67
2022/07/19 06:40:38;;;;;;;4.00;2.58;;;25.20;47.40;;;23.08;57.32;96484.50;4920207;28;20031;-68
2022/07/19 06:43:04;;;;;;;7.07;2.67;;;25.50;46.40;;;23.27;55.37;96479.50;4935990;28;20031;-68
2022/07/19 06:45:30;;;;;;;3.70;2.35;;;25.70;45.10;;;23.49;54.69;96469.44;4951318;28;20151;-67
2022/07/19 06:47:56;;;;;;;4.22;2.22;;;26.00;43.80;;;23.74;53.85;96473.31;4915893;29;20035;-68
2022/07/19 06:50:21;;;;;;;4.97;2.05;;;26.30;43.60;;;23.96;53.23;96467.75;4951604;28;20038;-68
2022/07/19 06:52:47;;;;;;;6.25;2.13;;;26.50;42.60;;;24.16;52.59;96467.00;4952680;28;20534;-68
2022/07/19 06:55:13;;;;;;;6.90;2.15;;;26.80;41.80;;;24.36;52.13;96470.56;4935909;29;20031;-67
2022/07/19 06:57:39;;;;;;;4.63;2.17;;;27.00;41.70;;;24.55;51.50;96470.84;4951722;28;20082;-67
2022/07/19 07:00:07;;;;;;;4.80;2.25;;;27.20;41.50;;;24.74;51.41;96473.81;4935563;29;20118;-68
2022/07/19 07:02:33;;;;;;;4.35;2.30;;;27.40;41.80;;;24.95;51.12;96463.84;4936639;28;20035;-68
2022/07/19 07:04:59;;;;;;;11.18;2.33;;;27.60;41.40;;;25.16;51.05;96470.03;4953929;28;20066;-68
2022/07/19 07:07:24;;;;;;;3.58;2.20;;;27.80;41.50;;;25.35;50.43;96465.66;4919669;29;20035;-68
2022/07/19 07:09:50;;;;;;;5.13;2.08;;;28.20;40.20;;;25.56;49.98;96472.56;4934889;29;20031;-68
2022/07/19 07:12:16;;;;;;;4.03;1.98;;;28.50;39.90;;;25.80;49.65;96474.66;4951339;28;20119;-68
2022/07/19 07:14:41;;;;;;;7.68;2.20;;;28.70;39.50;;;26.00;49.11;96471.88;4935484;28;20044;-67
2022/07/19 07:17:07;;;;;;;9.38;2.15;;;28.90;39.50;;;26.27;48.57;96476.06;4970820;28;20027;-67
2022/07/19 07:19:33;;;;;;;7.30;2.13;;;29.30;38.90;;;26.53;48.31;96482.91;4935136;28;20031;-68
2022/07/19 07:22:00;;;;;;;6.05;1.88;;;29.60;37.90;;;26.82;47.82;96480.25;4942697;28;20038;-68
2022/07/19 07:24:26;;;;;;;7.43;2.17;;;29.90;37.60;;;27.12;46.70;96480.00;4951830;28;20035;-67
2022/07/19 07:26:52;;;;;;;5.25;2.13;;;30.10;37.30;;;27.39;45.81;96478.66;4935278;29;20384;-67
2022/07/19 07:29:18;;;;;;;8.00;2.70;;;30.40;36.30;;;27.62;46.00;96477.91;4951095;28;20034;-68
2022/07/19 07:31:44;;;;;;;11.73;2.45;;;30.50;36.70;;;27.89;45.11;96466.47;4919523;29;20035;-68
2022/07/19 07:34:09;;;;;;;3.60;1.90;;;30.80;36.00;;;28.11;44.64;96462.41;4967128;28;20031;-67
2022/07/19 07:36:35;;;;;;;9.93;3.13;;;30.90;35.60;;;28.33;44.11;96462.66;4921705;28;20070;-67
2022/07/19 07:39:01;;;;;;;6.82;3.00;;;31.20;35.30;;;28.53;43.73;96465.06;4926769;28;20032;-67
2022/07/19 07:41:27;;;;;;;6.90;2.30;;;31.50;34.80;;;28.79;42.98;96460.03;4951062;28;20024;-68
2022/07/19 07:43:53;;;;;;;5.18;1.92;;;31.80;34.00;;;29.05;41.85;96455.00;4942681;28;20039;-67
2022/07/19 07:46:18;;;;;;;4.15;1.90;;;31.90;33.50;;;29.28;42.03;96459.44;4942956;28;20039;-68
2022/07/19 07:48:44;;;;;;;5.68;2.15;;;32.30;33.60;;;29.55;40.60;96457.88;4938055;28;20039;-68
2022/07/19 07:51:10;;;;;;;3.72;1.70;;;32.60;32.50;;;29.86;40.34;96453.44;4919256;29;20034;-68
2022/07/19 07:53:35;;;;;;;4.25;1.88;;;33.00;31.80;;;30.15;40.28;96453.13;4935022;29;20088;-68
2022/07/19 07:56:01;;;;;;;3.40;1.88;;;33.20;32.10;;;30.44;39.58;96447.28;4934857;28;20518;-67
2022/07/19 07:58:27;;;;;;;5.32;2.20;;;33.60;31.90;;;30.71;39.61;96448.31;4951340;28;20043;-68
2022/07/19 08:00:53;;;;;;;3.97;1.85;;;33.80;31.70;;;30.90;38.80;96446.19;4934676;29;20031;-67
2022/07/19 08:03:18;;;;;;;7.63;1.80;;;33.90;30.90;;;31.06;38.75;96452.03;4934847;28;20046;-68
2022/07/19 08:05:48;;;;;;;9.88;1.90;;;34.10;30.90;;;31.29;37.87;96447.38;4918845;29;20035;-68
2022/07/19 08:08:17;;;;;;;4.88;2.00;;;34.20;30.90;;;31.54;36.96;96441.25;4935169;29;20117;-68
2022/07/19 08:10:43;;;;;;;3.47;1.90;;;34.50;30.30;;;31.77;36.99;96438.47;4918417;28;20037;-68
2022/07/19 08:13:08;;;;;;;5.05;1.80;;;34.60;30.00;;;31.97;35.98;96440.59;4918880;29;20275;-68
2022/07/19 08:15:38;;;;;;;11.25;1.95;;;34.70;29.50;;;32.10;34.70;96438.81;4941427;28;20545;-68
2022/07/19 08:18:04;;;;;;;4.72;1.50;;;34.70;29.10;;;32.23;35.47;96438.69;4917155;28;20033;-68
2022/07/19 08:20:30;;;;;;;6.03;1.80;;;35.10;29.60;;;32.36;35.97;96441.59;4972958;28;20423;-68
2022/07/19 08:22:55;;;;;;;3.15;2.33;;;35.20;28.80;;;32.52;34.90;96442.72;4904824;29;20028;-68
2022/07/19 08:25:21;;;;;;;7.97;3.25;;;35.60;28.10;;;32.68;34.77;96438.38;4899876;29;20046;-68
2022/07/19 08:27:47;;;;;;;4.47;2.00;;;35.80;28.00;;;32.92;34.51;96439.81;4930995;28;20031;-68
2022/07/19 08:30:13;;;;;;;3.42;1.90;;;36.00;27.90;;;33.07;34.03;96439.31;4931291;28;20427;-68
2022/07/19 08:32:39;;;;;;;4.05;1.80;;;36.10;27.60;;;33.20;33.52;96436.34;4936042;28;20035;-68
2022/07/19 08:35:06;;;;;;;4.40;1.70;;;36.30;26.50;;;33.39;33.32;96437.91;4934113;29;20028;-68
2022/07/19 08:37:32;;;;;;;8.00;1.90;;;36.50;26.40;;;33.54;32.30;96433.84;4909975;29;20027;-68
2022/07/19 08:39:58;;;;;;;2.63;1.58;;;36.60;25.90;;;33.72;32.49;96435.34;4929377;28;20035;-68
2022/07/19 08:42:23;;;;;;;5.30;1.60;;;36.70;25.70;;;33.84;32.56;96427.28;4950339;28;20090;-68
2022/07/19 08:44:51;;;;;;;3.30;1.50;;;36.90;26.10;;;34.14;31.52;96424.50;4930531;28;20103;-68
2022/07/19 08:47:18;;;;;;;2.78;1.38;;;37.30;25.70;;;34.40;31.64;96427.84;4947316;28;20038;-68
2022/07/19 08:49:45;;;;;;;3.63;1.67;;;37.50;25.40;;;34.41;31.58;96434.16;4938154;28;20562;-68
2022/07/19 08:52:11;;;;;;;4.63;1.70;;;37.20;25.40;;;34.50;30.58;96427.47;4938355;29;20059;-67
2022/07/19 08:54:37;;;;;;;4.75;1.60;;;37.40;25.00;;;34.59;30.96;96430.09;4937987;28;20027;-67
2022/07/19 08:59:47;;;;;;;5.95;1.58;;;37.70;25.10;;;34.98;29.38;96431.53;4927240;29;20038;-67
2022/07/19 09:02:13;;;;;;;2.92;1.25;;;37.60;23.90;;;35.07;29.43;96424.00;4945121;28;20043;-68
2022/07/19 09:04:39;;;;;;;7.05;1.70;;;37.70;24.50;;;35.07;29.03;96434.94;4937731;28;20031;-68
2022/07/19 09:07:05;;;;;;;3.28;1.63;;;37.50;24.20;;;35.05;28.88;96430.97;4957356;28;20043;-68
2022/07/19 09:09:34;;;;;;;3.10;1.23;;;37.30;24.10;;;35.07;28.22;96424.00;4937669;28;20032;-68
2022/07/19 09:12:00;;;;;;;7.97;2.20;;;37.50;24.30;;;35.15;28.56;96417.66;4922634;29;20550;-67
2022/07/19 09:14:32;;;;;;;5.20;1.70;;;37.60;24.70;;;35.28;27.88;96413.78;4938581;28;20023;-68
2022/07/19 09:17:05;;;;;;;7.82;1.50;;;37.80;24.20;;;35.34;26.87;96417.16;4953300;28;20058;-67
2022/07/19 09:19:34;;;;;;;2.83;1.30;;;37.70;23.20;;;35.40;27.42;96417.72;4953642;29;20036;-68
2022/07/19 09:22:20;;;;;;;6.63;1.50;;;37.90;23.30;;;35.45;26.94;96414.75;4924349;29;20042;-68
2022/07/19 09:24:50;;;;;;;7.55;1.50;;;37.70;23.30;;;35.49;27.15;96410.19;4921084;28;20067;-68
2022/07/19 09:27:23;;;;;;;8.77;1.30;;;37.90;23.20;;;35.59;27.21;96407.00;4955615;28;20042;-68
2022/07/19 09:29:54;;;;;;;4.55;1.40;;;38.00;24.00;;;35.69;26.93;96403.78;4921864;29;20107;-67
2022/07/19 09:32:21;;;;;;;5.63;1.30;;;38.10;23.00;;;35.78;26.44;96399.00;4925704;28;20035;-68
2022/07/19 09:35:03;;;;;;;2.90;1.38;;;38.00;22.20;;;35.93;26.70;96402.19;4921297;28;20047;-67
2022/07/19 09:37:30;;;;;;;3.97;1.30;;;38.50;22.70;;;36.03;26.56;96396.25;4938321;28;20462;-68
2022/07/19 09:39:58;;;;;;;4.65;1.40;;;38.70;22.40;;;36.22;26.74;96382.75;4937490;29;20031;-68
2022/07/19 09:42:38;;;;;;;4.63;1.10;;;39.00;22.40;;;36.36;25.19;96399.59;4921994;29;20039;-68
2022/07/19 09:45:11;;;;;;;;;;;39.20;21.20;;;36.43;24.57;96391.56;4966019;28;20040;-68
2022/07/19 09:47:39;;;;;;;3.63;1.33;;;39.10;20.30;;;36.48;25.80;96383.13;4956482;28;19966;-67
2022/07/19 09:50:16;;;;;;;3.13;1.45;;;39.20;21.40;;;36.66;24.30;96382.78;4953300;28;20163;-68
2022/07/19 09:52:43;;;;;;;3.97;1.20;;;39.50;21.10;;;36.80;24.85;96383.22;4969039;28;20147;-68
2022/07/19 09:55:09;;;;;;;3.30;1.55;;;39.70;20.90;;;36.82;25.59;96378.16;4954132;28;20074;-68
2022/07/19 09:57:41;;;;;;;2.95;1.33;;;39.70;21.00;;;36.91;23.92;96378.81;4953116;28;20079;-67
2022/07/19 10:00:08;;;;;;;4.60;1.38;;;40.00;20.10;;;36.94;24.68;96378.13;4953085;28;20031;-68
2022/07/19 10:02:36;;;;;;;2.58;1.20;;;40.00;19.50;;;37.12;24.36;96378.56;4952518;28;20038;-67
2022/07/19 10:05:05;;;;;;;2.80;1.10;;;40.40;19.80;;;37.36;24.21;96372.13;4921407;29;20147;-67
2022/07/19 10:07:32;;;;;;;3.13;1.40;;;41.00;19.00;;;37.56;23.71;96378.44;4937460;29;20086;-68
2022/07/19 10:10:06;;;;;;;1.98;1.23;;;41.30;19.00;;;37.88;23.07;96368.25;4954020;28;20038;-67
2022/07/19 10:12:32;;;;;;;3.33;1.35;;;41.70;18.80;;;38.15;24.05;96370.00;4920955;28;20431;-68
2022/07/19 10:14:58;;;;;;;2.42;1.02;;;42.00;18.90;;;38.55;23.38;96366.13;4939570;28;20111;-67
2022/07/19 10:17:56;;;;;;;5.65;1.00;;;42.50;18.00;;;38.75;22.04;96361.41;4920999;29;20031;-68
2022/07/19 10:20:24;;;;;;;2.28;1.10;;;42.40;17.40;;;39.02;22.52;96373.28;4938321;29;20031;-68